Time;durP1;ratioP1;P1;durP2;ratioP2;P2;SDS_P1;SDS_P2;PMS_P1;PMS_P2;Temp;Humidity;BMP_temperature;BMP_pressure;BME280_temperature;BME280_humidity;BME280_pressure;Samples;Min_cycle;Max_cycle;Signal;HPM_P1;HPM_P2
2022/02/01 00:03:49;;;;;;;;;30.50;27.75;;;;;4.41;54.84;101982.72;4977540;28;45306;-60
2022/02/01 00:06:23;;;;;;;;;30.25;24.75;;;;;4.40;55.13;101981.03;4977557;28;45474;-61
2022/02/01 00:08:59;;;;;;;;;31.75;25.00;;;;;4.40;55.13;101986.22;4958967;28;45627;-64
2022/02/01 00:11:51;;;;;;;;;30.50;28.00;;;;;4.39;55.15;101995.81;4959909;28;45844;-62
2022/02/01 00:14:28;;;;;;;;;30.25;22.50;;;;;4.37;55.27;101976.81;4960052;28;45303;-63
2022/02/01 00:34:01;;;;;;;;;44.25;30.50;;;;;4.35;55.70;101982.97;4965115;28;45689;-59
2022/02/01 00:36:32;;;;;;;;;31.75;25.75;;;;;4.33;55.78;102000.38;4965425;28;45302;-59
2022/02/01 00:41:28;;;;;;;;;25.25;18.25;;;;;4.31;56.09;102000.47;4968808;28;46080;-59
2022/02/01 00:43:53;;;;;;;;;28.75;22.00;;;;;4.30;55.92;101994.38;4964161;28;45408;-60
2022/02/01 00:46:19;;;;;;;;;26.00;20.50;;;;;4.31;56.19;102003.88;4965489;28;66972;-59
2022/02/01 00:48:44;;;;;;;;;24.75;20.00;;;;;4.36;56.28;102000.25;4967755;28;64343;-59
2022/02/01 00:51:12;;;;;;;;;17.50;16.00;;;;;4.38;56.09;101994.13;4967252;28;64684;-59
2022/02/01 00:53:39;;;;;;;;;25.25;19.00;;;;;4.39;56.37;102005.34;4979246;28;46364;-58
2022/02/01 00:56:05;;;;;;;;;29.75;23.00;;;;;4.39;56.06;102018.38;4971521;28;45353;-59
2022/02/01 00:58:30;;;;;;;;;31.25;24.50;;;;;4.39;56.04;102021.84;4968184;28;70158;-59
2022/02/01 01:00:56;;;;;;;;;28.00;21.50;;;;;4.41;56.20;102016.56;4972386;28;75584;-59
2022/02/01 01:03:21;;;;;;;;;23.75;19.75;;;;;4.42;55.86;102023.47;4951255;28;45441;-60
2022/02/01 01:05:46;;;;;;;;;16.75;14.00;;;;;4.45;55.78;102016.41;4969141;28;45867;-59
2022/02/01 01:08:12;;;;;;;;;14.75;13.00;;;;;4.48;55.89;102022.38;4966869;28;63113;-59
2022/02/01 01:10:37;;;;;;;;;16.50;12.50;;;;;4.50;55.73;102015.38;4972818;28;74957;-60
2022/02/01 01:16:33;;;;;;;;;19.75;12.50;;;;;4.53;55.78;102016.09;4969048;28;45285;-59
2022/02/01 01:53:45;;;;;;;;;11.75;9.25;;;;;4.79;55.66;101992.53;4959749;28;45286;-58
2022/02/01 01:56:11;;;;;;;;;9.25;8.25;;;;;4.79;55.79;101995.13;4959240;28;45780;-61
2022/02/01 01:58:36;;;;;;;;;12.50;10.25;;;;;4.79;55.67;101997.72;4941335;28;45736;-59
2022/02/01 02:01:11;;;;;;;;;7.50;6.00;;;;;4.79;55.91;101987.31;4958718;28;70419;-59
2022/02/01 02:03:43;;;;;;;;;11.50;8.50;;;;;4.78;55.92;101985.63;4959579;28;46316;-59
2022/02/01 02:06:09;;;;;;;;;11.25;7.75;;;;;4.77;56.03;101984.75;4959618;28;45248;-59
2022/02/01 02:08:35;;;;;;;;;25.50;15.75;;;;;4.75;55.97;101997.00;4959578;28;45269;-61
2022/02/01 02:11:06;;;;;;;;;39.50;29.00;;;;;4.75;55.86;101997.00;4959561;28;45541;-59
2022/02/01 02:16:20;;;;;;;;;15.75;12.50;;;;;4.74;56.29;101990.13;4959695;28;45235;-61
2022/02/01 02:18:45;;;;;;;;;13.75;10.50;;;;;4.74;56.39;102000.53;4959628;28;45341;-59
2022/02/01 02:21:11;;;;;;;;;22.00;17.50;;;;;4.75;56.16;102000.44;4942026;28;45275;-59
2022/02/01 02:23:36;;;;;;;;;11.00;9.00;;;;;4.76;56.12;101993.50;4959377;28;45937;-59
2022/02/01 02:26:05;;;;;;;;;8.25;7.00;;;;;4.76;56.55;102001.31;4958173;28;70621;-59
2022/02/01 02:28:31;;;;;;;;;8.25;7.25;;;;;4.75;56.46;102002.22;4959377;28;45317;-59
2022/02/01 02:30:56;;;;;;;;;9.00;6.50;;;;;4.74;56.45;102003.13;4959222;28;45310;-58
2022/02/01 02:33:21;;;;;;;;;10.75;7.00;;;;;4.72;56.51;102004.94;4958704;28;46109;-58
2022/02/01 02:35:56;;;;;;;;;7.75;6.75;;;;;4.71;56.53;101996.28;4959093;28;45269;-61
2022/02/01 02:38:32;;;;;;;;;9.00;6.25;;;;;4.72;56.84;101994.53;4958732;28;45330;-59
2022/02/01 02:41:08;;;;;;;;;8.00;7.00;;;;;4.71;56.83;101982.44;4959220;28;45369;-60
2022/02/01 02:46:26;;;;;;;;;7.00;6.50;;;;;4.72;56.69;101986.72;4959188;28;45373;-59
2022/02/01 02:48:51;;;;;;;;;13.00;6.00;;;;;4.71;57.03;101970.25;4958271;28;65759;-59
2022/02/01 02:51:18;;;;;;;;;7.75;6.50;;;;;4.70;56.93;101952.91;4958588;28;54086;-59
2022/02/01 02:53:43;;;;;;;;;7.75;6.50;;;;;4.71;57.26;101953.78;4958831;28;46271;-60
2022/02/01 02:56:08;;;;;;;;;4.00;4.00;;;;;4.72;57.39;101935.47;4957855;28;71422;-58
2022/02/01 02:58:34;;;;;;;;;6.75;6.00;;;;;4.74;57.33;101927.63;4958129;28;68148;-58
2022/02/01 03:00:59;;;;;;;;;8.75;6.00;;;;;4.74;57.60;101943.25;4957984;28;66378;-59
2022/02/01 03:03:25;;;;;;;;;13.25;7.50;;;;;4.72;57.69;101932.88;4958749;28;46151;-61
2022/02/01 03:05:50;;;;;;;;;19.50;13.75;;;;;4.73;57.47;101928.53;4958711;28;45379;-58
2022/02/01 03:08:15;;;;;;;;;15.25;11.75;;;;;4.73;57.77;101931.97;4957798;28;68206;-59
2022/02/01 03:10:44;;;;;;;;;17.50;12.75;;;;;4.77;57.67;101939.66;4940136;28;72313;-58
2022/02/01 03:13:14;;;;;;;;;15.25;12.50;;;;;4.79;57.69;101948.25;4958612;28;45329;-58
2022/02/01 03:20:51;;;;;;;;;15.50;11.75;;;;;4.86;57.93;101937.50;4958628;28;45248;-59
2022/02/01 03:23:17;;;;;;;;;10.25;9.00;;;;;4.90;57.93;101935.63;4957471;28;70822;-62
2022/02/01 03:25:42;;;;;;;;;9.00;7.75;;;;;4.94;58.12;101938.94;4957553;28;66089;-59
2022/02/01 03:28:07;;;;;;;;;13.00;9.00;;;;;4.97;58.09;101933.59;4958690;28;45310;-60
2022/02/01 03:30:33;;;;;;;;;10.50;9.00;;;;;4.99;58.14;101932.66;4940160;28;64007;-59
2022/02/01 03:32:58;;;;;;;;;9.50;8.75;;;;;4.99;58.33;101937.84;4957507;28;69545;-59
2022/02/01 03:35:24;;;;;;;;;10.00;7.50;;;;;5.02;58.34;101948.16;4957386;28;66319;-59
2022/02/01 03:37:49;;;;;;;;;7.00;7.00;;;;;5.04;58.51;101941.09;4957506;28;63045;-59
2022/02/01 03:40:17;;;;;;;;;13.50;8.00;;;;;5.10;58.42;101945.19;4957509;28;61540;-59
2022/02/01 03:42:43;;;;;;;;;14.75;9.75;;;;;5.13;58.45;101945.06;4958076;28;45370;-58
2022/02/01 03:45:09;;;;;;;;;7.25;6.00;;;;;5.16;58.51;101944.09;4957830;28;45385;-58
2022/02/01 03:47:34;;;;;;;;;7.25;6.75;;;;;5.19;58.49;101944.81;4958232;28;45219;-59
2022/02/01 03:50:00;;;;;;;;;8.00;8.00;;;;;5.19;58.97;101939.59;4940876;28;45526;-60
2022/02/01 03:52:25;;;;;;;;;7.50;6.00;;;;;5.22;58.80;101924.75;4940608;28;46164;-59
2022/02/01 03:54:51;;;;;;;;;8.25;7.00;;;;;5.22;59.05;101907.34;4957023;28;69367;-59
2022/02/01 03:57:16;;;;;;;;;9.25;7.00;;;;;5.25;59.03;101904.59;4957944;28;45288;-59
2022/02/01 03:59:44;;;;;;;;;9.00;6.50;;;;;5.27;59.19;101899.34;4957010;28;67866;-59
2022/02/01 04:02:09;;;;;;;;;12.25;8.00;;;;;5.29;59.18;101907.94;4957762;28;46062;-60
2022/02/01 04:04:35;;;;;;;;;10.50;9.50;;;;;5.29;58.74;101900.13;4957796;28;45363;-60
2022/02/01 04:07:00;;;;;;;;;13.75;10.25;;;;;5.28;58.93;101896.66;4957549;28;49727;-58
2022/02/01 04:09:27;;;;;;;;;13.50;8.00;;;;;5.30;59.06;101900.03;4957801;28;45265;-59
2022/02/01 04:11:56;;;;;;;;;8.50;7.25;;;;;5.30;59.16;101907.03;4957806;28;47405;-58
2022/02/01 04:14:26;;;;;;;;;11.25;9.25;;;;;5.31;59.00;101916.50;4957763;28;45360;-59
2022/02/01 04:16:51;;;;;;;;;10.25;9.00;;;;;5.33;59.19;101906.84;4957625;28;45450;-61
2022/02/01 04:19:16;;;;;;;;;12.50;10.00;;;;;5.35;59.20;101920.66;4956985;28;60822;-58
2022/02/01 04:21:50;;;;;;;;;10.25;8.75;;;;;5.37;59.23;101902.38;4955841;28;71557;-61
2022/02/01 04:24:15;;;;;;;;;11.50;9.75;;;;;5.38;59.24;101896.25;4957584;28;45407;-58
2022/02/01 04:26:41;;;;;;;;;10.00;8.50;;;;;5.39;59.12;101901.38;4956464;28;59260;-59
2022/02/01 04:29:06;;;;;;;;;8.50;8.00;;;;;5.41;59.38;101891.72;4956654;28;62090;-59
2022/02/01 04:31:31;;;;;;;;;8.75;6.50;;;;;5.42;59.35;101893.41;4956567;28;68525;-61
2022/02/01 04:33:57;;;;;;;;;9.50;8.00;;;;;5.42;59.25;101892.59;4957286;28;45433;-60
2022/02/01 04:36:22;;;;;;;;;13.00;8.50;;;;;5.42;59.42;101898.63;4956713;28;58715;-61
2022/02/01 04:38:56;;;;;;;;;9.00;7.00;;;;;5.44;59.40;101893.38;4956926;28;59812;-60
2022/02/01 04:41:22;;;;;;;;;7.75;7.75;;;;;5.46;59.52;101899.34;4957166;28;46404;-61
2022/02/01 04:43:48;;;;;;;;;9.00;8.00;;;;;5.47;59.38;101898.44;4957097;28;45623;-60
2022/02/01 04:46:14;;;;;;;;;10.00;8.00;;;;;5.46;59.64;101884.56;4940115;28;45288;-60
2022/02/01 04:48:39;;;;;;;;;9.75;8.00;;;;;5.49;59.66;101889.63;4957380;28;45248;-61
2022/02/01 04:51:05;;;;;;;;;10.00;7.75;;;;;5.50;59.92;101885.28;4956610;28;46687;-61
2022/02/01 04:53:30;;;;;;;;;13.00;7.00;;;;;5.53;60.19;101902.53;4957148;28;45334;-61
2022/02/01 04:55:56;;;;;;;;;8.00;6.00;;;;;5.55;60.25;101903.31;4957351;28;45165;-61
2022/02/01 04:58:22;;;;;;;;;9.75;7.75;;;;;5.57;60.61;101891.03;4956627;28;59667;-62
2022/02/01 05:00:47;;;;;;;;;10.00;7.00;;;;;5.59;60.82;101884.81;4956586;28;45711;-60
2022/02/01 05:03:13;;;;;;;;;7.50;5.00;;;;;5.62;60.68;101868.22;4957104;28;45367;-61
2022/02/01 05:05:38;;;;;;;;;8.25;7.00;;;;;5.62;61.04;101863.81;4956188;28;62751;-61
2022/02/01 05:08:07;;;;;;;;;15.25;10.00;;;;;5.63;61.48;101847.28;4956899;28;45665;-61
2022/02/01 05:10:33;;;;;;;;;13.25;10.00;;;;;5.65;61.78;101858.47;4956987;28;46042;-61
2022/02/01 05:13:23;;;;;;;;;16.00;7.50;;;;;5.65;61.98;101858.47;4956887;28;45354;-61
2022/02/01 05:15:44;;;;;;;;;10.25;8.75;;;;;5.68;62.25;101851.44;4956897;28;45403;-59
2022/02/01 05:18:16;;;;;;;;;13.75;11.00;;;;;5.71;62.43;101862.56;4956989;28;45436;-59
2022/02/01 05:20:48;;;;;;;;;12.25;9.00;;;;;5.73;62.65;101870.31;4956333;28;46195;-58
2022/02/01 05:23:15;;;;;;;;;8.25;6.50;;;;;5.75;62.76;101871.94;4940021;28;45458;-59
2022/02/01 05:25:41;;;;;;;;;10.25;4.50;;;;;5.76;62.93;101875.38;4956954;28;45295;-61
2022/02/01 05:28:06;;;;;;;;;9.00;5.00;;;;;5.78;63.19;101894.41;4956859;28;45267;-61
2022/02/01 05:30:32;;;;;;;;;7.00;5.00;;;;;5.78;63.41;101897.88;4955684;28;69403;-60
2022/02/01 05:32:57;;;;;;;;;12.25;9.00;;;;;5.81;63.49;101883.03;4957445;28;64490;-61
2022/02/01 05:35:22;;;;;;;;;16.00;10.00;;;;;5.79;63.72;101878.72;4959444;28;61739;-61
2022/02/01 05:37:48;;;;;;;;;4.75;4.00;;;;;5.81;64.02;101880.41;4959194;28;68265;-61
2022/02/01 05:40:14;;;;;;;;;7.50;5.00;;;;;5.82;64.17;101890.75;4959874;28;45338;-61
2022/02/01 05:45:23;;;;;;;;;10.25;5.00;;;;;5.85;64.91;101879.31;4959972;28;45303;-61
2022/02/01 05:47:48;;;;;;;;;4.75;4.75;;;;;5.87;65.30;101867.06;4960083;28;45348;-61
2022/02/01 05:50:14;;;;;;;;;7.50;4.50;;;;;5.89;65.33;101857.38;4958745;28;75593;-61
2022/02/01 05:52:39;;;;;;;;;10.00;8.25;;;;;5.88;65.72;101853.94;4959785;28;45168;-61
2022/02/01 05:55:05;;;;;;;;;8.75;7.00;;;;;5.91;66.00;101850.34;4941737;28;69416;-61
2022/02/01 05:57:30;;;;;;;;;8.00;4.00;;;;;5.90;66.14;101835.59;4959787;28;45654;-58
2022/02/01 05:59:55;;;;;;;;;9.75;9.00;;;;;5.90;66.31;101817.34;4958438;28;75569;-60
2022/02/01 06:02:21;;;;;;;;;5.75;5.00;;;;;5.91;66.62;101819.03;4958733;28;70140;-60
2022/02/01 06:04:46;;;;;;;;;12.00;5.50;;;;;5.94;66.82;101824.09;4958923;28;57635;-60
2022/02/01 06:07:11;;;;;;;;;3.75;3.50;;;;;5.96;67.25;101830.09;4959813;28;45232;-61
2022/02/01 06:09:37;;;;;;;;;4.25;3.00;;;;;5.99;67.46;101835.16;4959436;28;46029;-61
2022/02/01 06:12:02;;;;;;;;;8.25;4.75;;;;;6.02;67.71;101819.41;4958765;28;66556;-61
2022/02/01 06:14:28;;;;;;;;;5.50;4.00;;;;;6.05;67.79;101818.41;4959724;28;45226;-59
2022/02/01 06:16:53;;;;;;;;;7.50;5.00;;;;;6.06;67.88;101836.59;4959591;28;45399;-58
2022/02/01 06:19:19;;;;;;;;;6.25;3.00;;;;;6.09;67.98;101844.28;4958694;28;62134;-61
2022/02/01 06:21:44;;;;;;;;;4.00;4.00;;;;;6.12;68.02;101824.16;4958242;28;73110;-59
2022/02/01 06:24:09;;;;;;;;;8.25;4.00;;;;;6.15;68.18;101832.69;4958510;28;65201;-61
2022/02/01 06:26:35;;;;;;;;;13.00;9.50;;;;;6.17;68.40;101825.63;4959437;28;45270;-61
2022/02/01 06:29:00;;;;;;;;;15.50;9.00;;;;;6.18;68.31;101822.09;4958862;28;45517;-61
2022/02/01 06:31:26;;;;;;;;;12.00;8.00;;;;;6.20;68.45;101814.22;4941230;28;58680;-61
2022/02/01 06:33:51;;;;;;;;;16.00;13.75;;;;;6.21;68.57;101810.69;4958278;28;64630;-61
2022/02/01 06:36:16;;;;;;;;;9.25;7.50;;;;;6.21;68.86;101826.34;4958064;28;65840;-61
2022/02/01 06:38:42;;;;;;;;;9.25;8.00;;;;;6.21;68.57;101824.56;4957947;28;69649;-61
2022/02/01 06:41:07;;;;;;;;;15.00;12.00;;;;;6.22;68.50;101820.19;4958286;28;56978;-61
2022/02/01 06:43:32;;;;;;;;;10.25;9.00;;;;;6.23;68.80;101819.28;4941593;28;45381;-61
2022/02/01 06:45:58;;;;;;;;;5.75;5.00;;;;;6.24;68.92;101818.34;4958189;28;45384;-61
2022/02/01 06:48:24;;;;;;;;;8.25;7.75;;;;;6.25;68.73;101820.03;4941542;28;47119;-61
2022/02/01 06:50:51;;;;;;;;;7.75;6.25;;;;;6.26;68.72;101834.78;4941177;28;50807;-61
2022/02/01 06:53:19;;;;;;;;;14.25;9.00;;;;;6.26;68.95;101828.72;4958954;28;45378;-61
2022/02/01 06:55:56;;;;;;;;;8.50;7.00;;;;;6.27;69.13;101835.63;4958427;28;45593;-61
2022/02/01 06:58:22;;;;;;;;;8.75;7.00;;;;;6.27;69.10;101838.22;4958386;28;46352;-61
2022/02/01 07:00:47;;;;;;;;;5.50;5.00;;;;;6.28;69.16;101838.16;4957731;28;71074;-61
2022/02/01 07:03:12;;;;;;;;;9.75;7.00;;;;;6.30;69.37;101840.69;4957883;28;65943;-61
2022/02/01 07:05:38;;;;;;;;;7.50;5.25;;;;;6.31;69.34;101832.78;4957624;28;67109;-61
2022/02/01 07:08:03;;;;;;;;;10.25;7.50;;;;;6.29;69.51;101832.03;4957450;28;75414;-61
2022/02/01 07:10:29;;;;;;;;;16.50;10.00;;;;;6.30;69.39;101827.63;4958403;28;45184;-61
2022/02/01 07:12:54;;;;;;;;;7.50;5.25;;;;;6.31;69.29;101819.75;4958823;28;45531;-60
2022/02/01 07:15:20;;;;;;;;;12.50;8.50;;;;;6.31;69.70;101824.09;4958225;28;53872;-61
2022/02/01 07:17:49;;;;;;;;;12.25;7.00;;;;;6.31;69.57;101824.97;4957475;28;73792;-61
2022/02/01 07:20:15;;;;;;;;;8.50;8.00;;;;;6.32;69.55;101829.25;4958448;28;45924;-60
2022/02/01 07:22:42;;;;;;;;;5.25;5.25;;;;;6.34;69.69;101829.19;4958388;28;45773;-61
2022/02/01 07:25:31;;;;;;;;;9.75;6.25;;;;;6.34;69.80;101835.25;4958469;28;45482;-61
2022/02/01 07:27:59;;;;;;;;;9.75;5.00;;;;;6.35;69.62;101828.25;4958063;28;46184;-61
2022/02/01 07:30:26;;;;;;;;;10.00;6.00;;;;;6.37;69.88;101827.25;4957860;28;45512;-60
2022/02/01 07:32:51;;;;;;;;;9.00;6.50;;;;;6.37;69.94;101831.63;4940802;28;45420;-61
2022/02/01 07:35:18;;;;;;;;;8.25;7.00;;;;;6.36;70.10;101822.09;4958277;28;45295;-61
2022/02/01 07:37:44;;;;;;;;;10.25;8.00;;;;;6.37;70.04;101808.97;4957711;28;45249;-61
2022/02/01 07:40:09;;;;;;;;;13.00;8.00;;;;;6.37;69.84;101808.13;4940523;28;45251;-61
2022/02/01 07:42:35;;;;;;;;;11.25;6.25;;;;;6.39;70.05;101807.13;4957889;28;47938;-61
2022/02/01 07:45:02;;;;;;;;;10.75;8.00;;;;;6.39;69.87;101807.13;4958049;28;45417;-61
2022/02/01 07:47:28;;;;;;;;;8.75;8.00;;;;;6.40;70.11;101813.22;4957866;28;45464;-61
2022/02/01 07:49:53;;;;;;;;;8.00;7.75;;;;;6.41;70.25;101804.44;4957843;28;45390;-61
2022/02/01 07:52:19;;;;;;;;;11.50;8.00;;;;;6.45;70.18;101789.47;4958048;28;45479;-58
2022/02/01 07:54:44;;;;;;;;;7.50;6.75;;;;;6.44;70.05;101796.47;4957958;28;45366;-61
2022/02/01 07:57:10;;;;;;;;;11.50;9.25;;;;;6.45;70.33;101790.31;4956615;28;48597;-61
2022/02/01 07:59:35;;;;;;;;;9.75;9.00;;;;;6.45;70.12;101792.06;4956806;28;72045;-61
2022/02/01 08:02:01;;;;;;;;;14.25;10.75;;;;;6.45;70.34;101782.50;4957866;28;45456;-61
2022/02/01 08:04:32;;;;;;;;;13.25;11.25;;;;;6.46;70.50;101780.72;4957710;28;45322;-61
2022/02/01 08:06:57;;;;;;;;;11.75;10.00;;;;;6.46;70.50;101770.25;4957661;28;47199;-61
2022/02/01 08:09:27;;;;;;;;;11.50;8.50;;;;;6.46;70.61;101773.75;4957562;28;45300;-61
2022/02/01 08:11:53;;;;;;;;;10.50;8.25;;;;;6.46;70.76;101759.81;4957886;28;45331;-60
2022/02/01 08:16:58;;;;;;;;;10.75;9.00;;;;;6.47;70.99;101748.47;4957704;28;45474;-61
2022/02/01 08:20:09;;;;;;;;;11.00;8.00;;;;;6.48;70.99;101739.69;4957507;28;45849;-61
2022/02/01 08:22:30;;;;;;;;;10.75;10.75;;;;;6.49;71.11;101752.69;4946953;28;45321;-61
2022/02/01 08:24:56;;;;;;;;;11.25;8.25;;;;;6.49;70.94;101739.63;4957620;28;45324;-61
2022/02/01 08:27:21;;;;;;;;;12.75;11.00;;;;;6.50;71.24;101738.72;4956478;28;69954;-61
2022/02/01 08:29:47;;;;;;;;;8.25;6.75;;;;;6.51;71.26;101747.38;4956169;28;72797;-60
2022/02/01 08:32:12;;;;;;;;;13.00;10.00;;;;;6.53;71.30;101745.53;4939006;28;69209;-61
2022/02/01 08:34:37;;;;;;;;;17.25;8.00;;;;;6.55;71.26;101748.91;4956589;28;68230;-61
2022/02/01 08:37:03;;;;;;;;;14.00;9.25;;;;;6.57;71.17;101752.28;4953657;28;73679;-61
2022/02/01 08:39:28;;;;;;;;;11.00;10.25;;;;;6.58;71.24;101743.53;4922988;28;65871;-61
2022/02/01 08:41:53;;;;;;;;;13.25;10.25;;;;;6.59;71.33;101733.94;4954763;28;67361;-61
2022/02/01 08:44:25;;;;;;;;;16.00;12.00;;;;;6.58;71.53;101727.84;4956012;28;66948;-61
2022/02/01 08:46:50;;;;;;;;;13.00;10.25;;;;;6.58;71.46;101725.25;4957032;28;46366;-61
2022/02/01 08:49:15;;;;;;;;;11.50;10.00;;;;;6.61;71.64;101727.69;4956198;28;67012;-61
2022/02/01 08:51:43;;;;;;;;;11.00;10.00;;;;;6.63;71.58;101723.25;4956116;28;67821;-62
2022/02/01 08:54:17;;;;;;;;;16.00;10.00;;;;;6.66;71.78;101714.38;4955386;28;45617;-59
2022/02/01 08:59:27;;;;;;;;;13.25;10.00;;;;;6.72;71.88;101700.19;4956983;28;45389;-59
2022/02/01 09:01:53;;;;;;;;;11.75;9.00;;;;;6.76;71.92;101699.09;4956860;28;45425;-59
2022/02/01 09:04:18;;;;;;;;;12.00;6.75;;;;;6.77;71.90;101706.81;4955642;28;47269;-59
2022/02/01 09:06:44;;;;;;;;;10.75;10.75;;;;;6.81;72.07;101704.91;4938512;28;74412;-58
2022/02/01 09:09:09;;;;;;;;;8.50;7.25;;;;;6.84;71.90;101696.91;4959237;28;67349;-59
2022/02/01 09:11:34;;;;;;;;;10.00;7.75;;;;;6.89;71.87;101692.25;4960466;28;45596;-59
2022/02/01 09:14:00;;;;;;;;;10.25;6.75;;;;;6.91;71.87;101690.41;4959440;28;70438;-59
2022/02/01 09:16:25;;;;;;;;;12.25;8.00;;;;;6.93;71.93;101688.53;4959106;28;75629;-58
2022/02/01 09:18:51;;;;;;;;;11.75;9.00;;;;;6.95;71.95;101673.63;4959275;28;67259;-61
2022/02/01 09:21:16;;;;;;;;;10.25;7.00;;;;;6.96;71.99;101680.53;4959523;28;59029;-59
2022/02/01 09:23:41;;;;;;;;;10.00;8.75;;;;;7.00;72.23;101680.38;4960236;28;45220;-59
2022/02/01 09:26:07;;;;;;;;;8.00;8.00;;;;;7.01;72.08;101675.06;4959072;28;68578;-59
2022/02/01 09:28:33;;;;;;;;;8.75;8.00;;;;;7.03;72.19;101675.84;4959706;28;49441;-59
2022/02/01 09:30:58;;;;;;;;;13.50;9.25;;;;;7.07;72.33;101676.50;4939566;28;45467;-61
2022/02/01 09:33:24;;;;;;;;;9.50;6.50;;;;;7.09;72.31;101661.56;4938941;28;45332;-61
2022/02/01 09:35:49;;;;;;;;;11.00;10.00;;;;;7.12;72.47;101664.88;4940133;28;51615;-61
2022/02/01 09:38:17;;;;;;;;;13.00;10.50;;;;;7.15;72.50;101663.84;4940058;28;56475;-61
2022/02/01 09:40:42;;;;;;;;;9.50;8.75;;;;;7.19;72.50;101654.06;4940509;28;45241;-61
2022/02/01 09:43:08;;;;;;;;;10.50;8.25;;;;;7.21;72.49;101666.13;4940542;28;45483;-61
2022/02/01 09:45:34;;;;;;;;;8.25;8.25;;;;;7.23;72.49;101661.66;4939521;28;66872;-60
2022/02/01 09:48:00;;;;;;;;;16.50;8.75;;;;;7.26;72.57;101669.31;4938136;28;45736;-61
2022/02/01 09:50:26;;;;;;;;;9.75;8.75;;;;;7.28;72.50;101670.09;4938420;28;45556;-61
2022/02/01 09:52:52;;;;;;;;;10.75;8.50;;;;;7.31;72.57;101661.22;4939809;28;45411;-61
2022/02/01 09:55:17;;;;;;;;;11.25;7.50;;;;;7.35;72.62;101664.50;4939322;28;71917;-61
2022/02/01 09:57:44;;;;;;;;;12.00;10.75;;;;;7.36;72.46;101664.41;4938075;28;69224;-61
2022/02/01 10:00:15;;;;;;;;;18.25;16.00;;;;;7.39;72.61;101671.25;4940250;28;45312;-60
2022/02/01 10:02:42;;;;;;;;;14.00;10.75;;;;;7.41;72.75;101664.16;4940247;28;45170;-61
2022/02/01 10:05:09;;;;;;;;;9.00;6.00;;;;;7.46;72.51;101666.50;4939814;28;46279;-60
2022/02/01 10:07:52;;;;;;;;;14.25;10.00;;;;;7.46;72.50;101672.56;4940081;28;45981;-60
2022/02/01 10:10:21;;;;;;;;;16.50;13.00;;;;;7.49;72.63;101667.16;4939478;28;45242;-61
2022/02/01 10:13:01;;;;;;;;;16.50;15.00;;;;;7.52;72.76;101672.22;4938342;28;45494;-60
2022/02/01 10:15:26;;;;;;;;;10.00;9.00;;;;;7.58;72.52;101671.03;4939631;28;46091;-61
2022/02/01 10:18:02;;;;;;;;;10.75;7.25;;;;;7.59;72.50;101659.66;4939808;28;45198;-60
2022/02/01 10:20:43;;;;;;;;;11.50;6.25;;;;;7.61;72.62;101663.00;4939085;28;45279;-61
2022/02/01 10:23:29;;;;;;;;;7.25;6.50;;;;;7.64;72.46;101665.47;4940049;28;45310;-61
2022/02/01 10:26:02;;;;;;;;;8.25;6.00;;;;;7.67;72.60;101664.41;4939153;28;45437;-59
2022/02/01 10:28:56;;;;;;;;;10.75;8.00;;;;;7.70;72.57;101657.22;4939516;28;45877;-60
2022/02/01 10:31:29;;;;;;;;;14.25;12.00;;;;;7.72;72.61;101651.91;4939872;28;45317;-60
2022/02/01 10:34:02;;;;;;;;;15.00;10.00;;;;;7.73;72.72;101656.22;4939001;28;45298;-60
2022/02/01 10:36:35;;;;;;;;;9.25;9.25;;;;;7.76;72.77;101644.72;4939228;28;47026;-61
2022/02/01 10:39:01;;;;;;;;;11.25;9.00;;;;;7.79;72.73;101648.00;4939326;28;45370;-60
2022/02/01 10:41:26;;;;;;;;;10.50;9.00;;;;;7.83;72.64;101643.44;4939228;28;45361;-60
2022/02/01 10:43:51;;;;;;;;;10.00;8.75;;;;;7.86;72.70;101646.72;4938144;28;45739;-60
2022/02/01 10:46:18;;;;;;;;;12.00;11.00;;;;;7.87;72.70;101640.56;4939036;28;50819;-60
2022/02/01 10:48:47;;;;;;;;;14.50;9.00;;;;;7.90;72.74;101633.47;4939625;28;45268;-60
2022/02/01 10:51:18;;;;;;;;;10.75;9.00;;;;;7.90;72.72;101634.28;4939680;28;45419;-60
2022/02/01 10:53:43;;;;;;;;;0.00;0.00;;;;;7.92;72.70;101637.66;4939644;28;45317;-60
2022/02/01 10:56:13;;;;;;;;;10.75;10.00;;;;;7.94;72.97;101620.09;4939150;28;46039;-60
2022/02/01 10:58:38;;;;;;;;;12.00;10.75;;;;;7.98;72.92;101618.09;4939241;28;45758;-60
2022/02/01 11:01:04;;;;;;;;;9.50;9.00;;;;;8.00;72.97;101617.09;4939104;28;45733;-60
2022/02/01 11:03:30;;;;;;;;;9.75;7.00;;;;;8.05;72.85;101619.44;4939098;28;45187;-60
2022/02/01 11:05:55;;;;;;;;;11.50;8.75;;;;;8.08;73.05;101600.91;4937510;28;45487;-60
2022/02/01 11:08:26;;;;;;;;;14.25;10.00;;;;;8.10;73.14;101596.44;4921622;28;45444;-60
2022/02/01 11:10:57;;;;;;;;;11.25;10.25;;;;;8.14;73.25;101594.50;4920581;28;45675;-60
2022/02/01 11:13:22;;;;;;;;;10.25;6.25;;;;;8.19;73.28;101591.56;4937720;28;45395;-60
2022/02/01 11:16:02;;;;;;;;;9.00;7.00;;;;;8.22;73.29;101588.78;4937526;28;46313;-60
2022/02/01 11:18:28;;;;;;;;;9.50;7.50;;;;;8.27;73.36;101584.09;4938295;28;45866;-60
2022/02/01 11:21:03;;;;;;;;;6.25;6.00;;;;;8.30;73.42;101584.72;4938764;28;45370;-59
2022/02/01 11:23:34;;;;;;;;;4.50;4.00;;;;;8.36;73.32;101585.28;4937658;28;45342;-60
2022/02/01 11:26:08;;;;;;;;;5.00;4.00;;;;;8.40;73.34;101577.16;4938479;28;46522;-60
2022/02/01 11:28:43;;;;;;;;;4.75;4.50;;;;;8.42;73.03;101575.28;4938485;28;45320;-60
2022/02/01 11:31:09;;;;;;;;;4.00;4.00;;;;;8.49;73.34;101575.75;4919436;28;45365;-60
2022/02/01 11:33:42;;;;;;;;;10.25;5.25;;;;;8.54;73.17;101581.56;4918823;28;64379;-60
2022/02/01 11:36:11;;;;;;;;;5.00;4.00;;;;;8.59;73.33;101576.00;4917484;28;46199;-60
2022/02/01 11:38:47;;;;;;;;;5.25;4.25;;;;;8.63;72.97;101585.38;4918982;28;45429;-60
2022/02/01 11:41:13;;;;;;;;;3.00;3.00;;;;;8.67;72.95;101573.75;4918356;28;45426;-60
2022/02/01 11:43:40;;;;;;;;;6.75;5.00;;;;;8.70;72.78;101557.00;4918652;28;69395;-60
2022/02/01 11:46:08;;;;;;;;;7.00;7.00;;;;;8.73;73.04;101549.78;4918157;28;46395;-59
2022/02/01 11:48:36;;;;;;;;;7.25;6.75;;;;;8.76;72.63;101546.97;4917864;28;45847;-60
2022/02/01 11:51:02;;;;;;;;;5.00;5.00;;;;;8.81;72.62;101545.81;4919428;28;45398;-60
2022/02/01 11:53:33;;;;;;;;;5.25;5.25;;;;;8.84;72.65;101545.63;4919429;28;45558;-60
2022/02/01 11:55:59;;;;;;;;;6.00;5.50;;;;;8.87;72.73;101548.06;4919115;28;45409;-60
2022/02/01 11:58:36;;;;;;;;;6.75;5.00;;;;;8.90;72.63;101553.09;4918621;28;45547;-60
2022/02/01 12:01:02;;;;;;;;;7.00;6.00;;;;;8.94;72.56;101549.34;4917613;28;45395;-60
2022/02/01 12:03:35;;;;;;;;;5.00;5.00;;;;;8.97;72.57;101554.38;4919260;28;45384;-60
2022/02/01 12:06:06;;;;;;;;;7.25;7.00;;;;;9.00;72.41;101546.31;4919128;28;45327;-60
2022/02/01 12:08:32;;;;;;;;;6.25;6.00;;;;;9.04;72.49;101549.56;4918151;28;45425;-60
2022/02/01 12:10:59;;;;;;;;;8.00;5.00;;;;;9.06;72.53;101553.75;4917606;28;45498;-61
2022/02/01 12:13:25;;;;;;;;;8.50;7.50;;;;;9.08;72.81;101552.81;4917930;28;45556;-61
2022/02/01 12:15:51;;;;;;;;;8.75;7.00;;;;;9.09;72.49;101544.00;4917652;28;49361;-60
2022/02/01 12:18:26;;;;;;;;;11.00;6.75;;;;;9.11;72.65;101542.13;4917997;28;46135;-60
2022/02/01 12:21:29;;;;;;;;;6.75;6.75;;;;;9.13;72.41;101524.50;4916921;28;45417;-60
2022/02/01 12:23:56;;;;;;;;;10.50;10.50;;;;;9.13;72.41;101535.00;4918885;28;45395;-60
2022/02/01 12:26:29;;;;;;;;;12.25;8.75;;;;;9.16;72.36;101524.31;4918771;28;46085;-59
2022/02/01 12:28:57;;;;;;;;;12.75;9.50;;;;;9.16;72.42;101521.69;4924527;28;45991;-60
2022/02/01 12:31:24;;;;;;;;;11.25;10.50;;;;;9.17;72.18;101515.50;4957406;28;45331;-60
2022/02/01 12:33:54;;;;;;;;;11.75;8.00;;;;;9.18;72.42;101511.94;4957066;28;45441;-60
2022/02/01 12:36:26;;;;;;;;;8.00;6.75;;;;;9.19;72.36;101514.47;4956950;28;47073;-60
2022/02/01 12:39:22;;;;;;;;;8.25;7.00;;;;;9.21;72.48;101514.34;4957452;28;45306;-60
2022/02/01 12:42:02;;;;;;;;;8.50;8.25;;;;;9.23;72.85;101501.97;4954930;28;45208;-61
2022/02/01 12:46:57;;;;;;;;;14.25;9.00;;;;;9.24;72.57;101482.69;4957051;28;46182;-61
2022/02/01 12:49:58;;;;;;;;;8.00;8.00;;;;;9.27;73.05;101484.28;4957143;28;45223;-60
2022/02/01 12:52:26;;;;;;;;;8.75;8.00;;;;;9.28;73.05;101476.28;4859299;29;57070;-60